sensor_id;sensor_type;location;lat;lon;timestamp;pressure;altitude;pressure_sealevel;temperature;humidity
6680;BME280;3376;42.664;23.346;2023-04-05T00:01:05;94036.25;;;1.28;100.00
6680;BME280;3376;42.664;23.346;2023-04-05T00:03:33;94020.94;;;1.28;100.00
6680;BME280;3376;42.664;23.346;2023-04-05T00:06:00;94010.75;;;1.18;100.00
6680;BME280;3376;42.664;23.346;2023-04-05T00:08:27;94029.00;;;1.23;100.00
6680;BME280;3376;42.664;23.346;2023-04-05T00:10:54;94023.38;;;1.29;100.00
6680;BME280;3376;42.664;23.346;2023-04-05T00:13:21;94021.34;;;1.33;100.00
6680;BME280;3376;42.664;23.346;2023-04-05T00:15:48;94028.31;;;1.31;100.00
6680;BME280;3376;42.664;23.346;2023-04-05T00:18:16;94020.03;;;1.29;100.00
6680;BME280;3376;42.664;23.346;2023-04-05T00:20:48;94021.22;;;1.25;100.00
6680;BME280;3376;42.664;23.346;2023-04-05T00:23:15;94023.78;;;1.25;100.00
6680;BME280;3376;42.664;23.346;2023-04-05T00:25:42;93983.19;;;1.02;100.00
6680;BME280;3376;42.664;23.346;2023-04-05T00:28:09;94015.84;;;1.18;100.00
6680;BME280;3376;42.664;23.346;2023-04-05T00:30:36;93916.16;;;0.53;100.00
6680;BME280;3376;42.664;23.346;2023-04-05T00:33:02;93903.25;;;0.45;100.00
6680;BME280;3376;42.664;23.346;2023-04-05T00:35:31;94032.09;;;1.27;100.00
6680;BME280;3376;42.664;23.346;2023-04-05T00:37:57;94031.41;;;1.25;100.00
6680;BME280;3376;42.664;23.346;2023-04-05T00:40:24;94036.28;;;1.37;100.00
6680;BME280;3376;42.664;23.346;2023-04-05T00:42:51;94029.28;;;1.30;100.00
6680;BME280;3376;42.664;23.346;2023-04-05T00:45:18;94018.53;;;1.16;100.00
6680;BME280;3376;42.664;23.346;2023-04-05T00:47:45;94036.78;;;1.22;100.00
6680;BME280;3376;42.664;23.346;2023-04-05T00:50:12;93892.00;;;0.47;100.00
6680;BME280;3376;42.664;23.346;2023-04-05T00:52:42;94035.44;;;1.27;100.00
6680;BME280;3376;42.664;23.346;2023-04-05T00:55:09;94026.44;;;1.23;100.00
6680;BME280;3376;42.664;23.346;2023-04-05T00:57:37;94034.47;;;1.18;100.00
6680;BME280;3376;42.664;23.346;2023-04-05T01:00:05;94009.38;;;1.04;100.00
6680;BME280;3376;42.664;23.346;2023-04-05T01:02:35;94027.25;;;1.23;100.00
6680;BME280;3376;42.664;23.346;2023-04-05T01:05:16;94027.41;;;1.32;100.00
6680;BME280;3376;42.664;23.346;2023-04-05T01:07:52;94030.22;;;1.29;100.00
6680;BME280;3376;42.664;23.346;2023-04-05T01:10:21;94038.66;;;1.19;100.00
6680;BME280;3376;42.664;23.346;2023-04-05T01:12:49;94030.09;;;1.30;100.00
6680;BME280;3376;42.664;23.346;2023-04-05T01:15:16;94045.41;;;1.30;100.00
6680;BME280;3376;42.664;23.346;2023-04-05T01:17:43;94044.84;;;1.27;100.00
6680;BME280;3376;42.664;23.346;2023-04-05T01:20:11;94040.69;;;1.26;100.00
6680;BME280;3376;42.664;23.346;2023-04-05T01:23:04;94035.03;;;1.22;100.00
6680;BME280;3376;42.664;23.346;2023-04-05T01:26:03;94032.88;;;1.27;100.00
6680;BME280;3376;42.664;23.346;2023-04-05T01:28:47;94039.72;;;1.07;100.00
6680;BME280;3376;42.664;23.346;2023-04-05T01:31:26;94041.09;;;1.21;100.00
6680;BME280;3376;42.664;23.346;2023-04-05T01:33:58;94037.31;;;1.15;100.00
6680;BME280;3376;42.664;23.346;2023-04-05T01:36:29;94006.94;;;0.93;100.00
6680;BME280;3376;42.664;23.346;2023-04-05T01:38:58;94040.94;;;1.23;100.00
6680;BME280;3376;42.664;23.346;2023-04-05T01:41:28;93906.34;;;0.48;100.00
6680;BME280;3376;42.664;23.346;2023-04-05T01:43:55;94030.75;;;1.32;100.00
6680;BME280;3376;42.664;23.346;2023-04-05T01:46:23;94036.00;;;1.40;100.00
6680;BME280;3376;42.664;23.346;2023-04-05T01:48:50;94032.91;;;1.37;100.00
6680;BME280;3376;42.664;23.346;2023-04-05T01:51:17;94042.56;;;1.33;100.00
6680;BME280;3376;42.664;23.346;2023-04-05T01:53:44;94044.06;;;1.45;100.00
6680;BME280;3376;42.664;23.346;2023-04-05T01:56:11;94033.84;;;1.36;100.00
6680;BME280;3376;42.664;23.346;2023-04-05T01:58:37;94037.63;;;1.51;100.00
6680;BME280;3376;42.664;23.346;2023-04-05T02:01:04;94046.34;;;1.39;100.00
6680;BME280;3376;42.664;23.346;2023-04-05T02:03:32;94050.50;;;1.40;100.00
6680;BME280;3376;42.664;23.346;2023-04-05T02:05:59;94049.44;;;1.42;100.00
6680;BME280;3376;42.664;23.346;2023-04-05T02:08:26;94047.69;;;1.43;100.00
6680;BME280;3376;42.664;23.346;2023-04-05T02:10:53;94043.25;;;1.45;100.00
6680;BME280;3376;42.664;23.346;2023-04-05T02:13:20;94038.44;;;1.42;100.00
6680;BME280;3376;42.664;23.346;2023-04-05T02:15:48;94042.34;;;1.46;100.00
6680;BME280;3376;42.664;23.346;2023-04-05T02:18:15;94037.34;;;1.54;100.00
6680;BME280;3376;42.664;23.346;2023-04-05T02:20:48;94018.66;;;1.34;100.00
6680;BME280;3376;42.664;23.346;2023-04-05T02:23:14;94046.38;;;1.58;100.00
6680;BME280;3376;42.664;23.346;2023-04-05T02:25:41;94038.59;;;1.59;100.00
6680;BME280;3376;42.664;23.346;2023-04-05T02:28:08;94053.34;;;1.56;100.00
6680;BME280;3376;42.664;23.346;2023-04-05T02:30:35;94060.19;;;1.46;100.00
6680;BME280;3376;42.664;23.346;2023-04-05T02:33:01;94032.38;;;1.33;100.00
6680;BME280;3376;42.664;23.346;2023-04-05T02:35:29;94014.25;;;1.27;100.00
6680;BME280;3376;42.664;23.346;2023-04-05T02:37:57;94048.94;;;1.58;100.00
6680;BME280;3376;42.664;23.346;2023-04-05T02:40:24;94049.44;;;1.61;100.00
6680;BME280;3376;42.664;23.346;2023-04-05T02:42:50;94044.06;;;1.55;100.00
6680;BME280;3376;42.664;23.346;2023-04-05T02:45:17;94045.53;;;1.67;100.00
6680;BME280;3376;42.664;23.346;2023-04-05T02:47:44;94002.44;;;1.35;100.00
6680;BME280;3376;42.664;23.346;2023-04-05T02:50:11;94028.22;;;1.42;100.00
6680;BME280;3376;42.664;23.346;2023-04-05T02:52:37;94031.97;;;1.38;100.00
6680;BME280;3376;42.664;23.346;2023-04-05T02:55:06;94041.78;;;1.42;100.00
6680;BME280;3376;42.664;23.346;2023-04-05T02:57:33;94037.34;;;1.44;100.00
6680;BME280;3376;42.664;23.346;2023-04-05T03:00:00;94038.69;;;1.39;100.00
6680;BME280;3376;42.664;23.346;2023-04-05T03:02:26;94042.56;;;1.33;100.00
6680;BME280;3376;42.664;23.346;2023-04-05T03:04:53;94045.53;;;1.38;100.00
6680;BME280;3376;42.664;23.346;2023-04-05T03:07:20;94037.59;;;1.41;100.00
6680;BME280;3376;42.664;23.346;2023-04-05T03:09:50;94036.78;;;1.41;100.00
6680;BME280;3376;42.664;23.346;2023-04-05T03:12:19;94039.78;;;1.46;100.00
6680;BME280;3376;42.664;23.346;2023-04-05T03:14:46;94036.00;;;1.50;100.00
6680;BME280;3376;42.664;23.346;2023-04-05T03:17:13;94039.22;;;1.52;100.00
6680;BME280;3376;42.664;23.346;2023-04-05T03:19:39;93866.00;;;0.34;100.00
6680;BME280;3376;42.664;23.346;2023-04-05T03:22:07;94038.97;;;1.55;100.00
6680;BME280;3376;42.664;23.346;2023-04-05T03:24:33;94041.78;;;1.61;100.00
6680;BME280;3376;42.664;23.346;2023-04-05T03:27:00;94033.84;;;1.55;100.00
6680;BME280;3376;42.664;23.346;2023-04-05T03:29:29;94040.28;;;1.49;100.00
6680;BME280;3376;42.664;23.346;2023-04-05T03:31:56;94031.19;;;1.47;100.00
6680;BME280;3376;42.664;23.346;2023-04-05T03:34:24;94043.94;;;1.47;100.00
6680;BME280;3376;42.664;23.346;2023-04-05T03:36:53;94031.44;;;1.44;100.00
6680;BME280;3376;42.664;23.346;2023-04-05T03:39:19;94047.16;;;1.49;100.00
6680;BME280;3376;42.664;23.346;2023-04-05T03:41:46;94045.00;;;1.44;100.00
6680;BME280;3376;42.664;23.346;2023-04-05T03:44:13;94041.78;;;1.42;100.00
6680;BME280;3376;42.664;23.346;2023-04-05T03:46:41;94039.50;;;1.49;100.00
6680;BME280;3376;42.664;23.346;2023-04-05T03:49:08;94059.13;;;1.58;100.00
6680;BME280;3376;42.664;23.346;2023-04-05T03:51:35;94055.63;;;1.59;100.00
6680;BME280;3376;42.664;23.346;2023-04-05T03:54:01;94024.69;;;1.23;100.00
6680;BME280;3376;42.664;23.346;2023-04-05T03:56:28;94057.88;;;1.43;100.00
6680;BME280;3376;42.664;23.346;2023-04-05T03:58:55;94045.78;;;1.26;100.00
6680;BME280;3376;42.664;23.346;2023-04-05T04:01:22;94002.91;;;1.00;100.00
6680;BME280;3376;42.664;23.346;2023-04-05T04:03:50;94062.84;;;1.35;100.00
6680;BME280;3376;42.664;23.346;2023-04-05T04:06:17;94069.72;;;1.44;100.00
6680;BME280;3376;42.664;23.346;2023-04-05T04:08:44;94069.97;;;1.41;100.00
6680;BME280;3376;42.664;23.346;2023-04-05T04:11:10;94051.16;;;1.32;100.00
6680;BME280;3376;42.664;23.346;2023-04-05T04:13:37;94062.06;;;1.44;100.00
6680;BME280;3376;42.664;23.346;2023-04-05T04:16:05;93907.28;;;0.47;100.00
6680;BME280;3376;42.664;23.346;2023-04-05T04:18:31;94034.50;;;1.38;100.00
6680;BME280;3376;42.664;23.346;2023-04-05T04:21:02;93915.66;;;0.68;100.00
6680;BME280;3376;42.664;23.346;2023-04-05T04:23:31;94073.09;;;1.54;100.00
6680;BME280;3376;42.664;23.346;2023-04-05T04:25:58;94068.94;;;1.72;100.00
6680;BME280;3376;42.664;23.346;2023-04-05T04:28:28;94071.75;;;1.69;100.00
6680;BME280;3376;42.664;23.346;2023-04-05T04:30:59;94069.06;;;1.70;100.00
6680;BME280;3376;42.664;23.346;2023-04-05T04:33:29;94046.78;;;1.63;100.00
6680;BME280;3376;42.664;23.346;2023-04-05T04:35:55;94058.47;;;1.75;100.00
6680;BME280;3376;42.664;23.346;2023-04-05T04:38:24;93975.97;;;1.17;100.00
6680;BME280;3376;42.664;23.346;2023-04-05T04:40:51;94048.25;;;1.75;100.00
6680;BME280;3376;42.664;23.346;2023-04-05T04:43:18;94074.19;;;1.89;100.00
6680;BME280;3376;42.664;23.346;2023-04-05T04:45:51;94070.81;;;1.79;100.00
6680;BME280;3376;42.664;23.346;2023-04-05T04:48:19;94044.34;;;1.71;100.00
6680;BME280;3376;42.664;23.346;2023-04-05T04:50:47;94073.91;;;1.83;100.00
6680;BME280;3376;42.664;23.346;2023-04-05T04:53:14;94077.16;;;1.85;100.00
6680;BME280;3376;42.664;23.346;2023-04-05T04:55:44;94078.75;;;1.86;100.00
6680;BME280;3376;42.664;23.346;2023-04-05T04:58:14;94084.94;;;1.93;100.00
6680;BME280;3376;42.664;23.346;2023-04-05T05:00:41;94086.00;;;2.00;100.00
6680;BME280;3376;42.664;23.346;2023-04-05T05:03:08;94091.50;;;2.05;100.00
6680;BME280;3376;42.664;23.346;2023-04-05T05:05:41;94086.53;;;2.13;100.00
6680;BME280;3376;42.664;23.346;2023-04-05T05:08:08;94085.19;;;1.99;100.00
6680;BME280;3376;42.664;23.346;2023-04-05T05:10:34;93830.88;;;0.38;100.00
6680;BME280;3376;42.664;23.346;2023-04-05T05:13:03;94087.34;;;1.85;100.00
6680;BME280;3376;42.664;23.346;2023-04-05T05:15:30;94082.22;;;1.75;100.00
6680;BME280;3376;42.664;23.346;2023-04-05T05:17:56;94082.50;;;1.72;100.00
6680;BME280;3376;42.664;23.346;2023-04-05T05:20:23;94065.84;;;1.68;100.00
6680;BME280;3376;42.664;23.346;2023-04-05T05:22:52;94066.38;;;1.72;100.00
6680;BME280;3376;42.664;23.346;2023-04-05T05:25:19;94076.06;;;1.78;100.00
6680;BME280;3376;42.664;23.346;2023-04-05T05:27:47;94092.84;;;1.99;100.00
6680;BME280;3376;42.664;23.346;2023-04-05T05:30:16;94101.03;;;1.84;100.00
6680;BME280;3376;42.664;23.346;2023-04-05T05:32:43;94089.22;;;1.83;100.00
6680;BME280;3376;42.664;23.346;2023-04-05T05:35:09;94043.38;;;1.53;100.00
6680;BME280;3376;42.664;23.346;2023-04-05T05:37:36;94093.53;;;1.92;100.00
6680;BME280;3376;42.664;23.346;2023-04-05T05:40:04;94095.97;;;1.93;100.00
6680;BME280;3376;42.664;23.346;2023-04-05T05:42:31;94098.91;;;2.08;100.00
6680;BME280;3376;42.664;23.346;2023-04-05T05:45:03;94006.72;;;1.63;100.00
6680;BME280;3376;42.664;23.346;2023-04-05T05:47:31;94100.78;;;2.15;100.00
6680;BME280;3376;42.664;23.346;2023-04-05T05:49:58;94096.34;;;2.08;100.00
6680;BME280;3376;42.664;23.346;2023-04-05T05:52:25;94092.72;;;2.20;100.00
6680;BME280;3376;42.664;23.346;2023-04-05T05:54:51;94088.38;;;2.30;100.00
6680;BME280;3376;42.664;23.346;2023-04-05T05:57:18;94088.25;;;2.41;100.00
6680;BME280;3376;42.664;23.346;2023-04-05T05:59:45;94089.41;;;2.56;100.00
6680;BME280;3376;42.664;23.346;2023-04-05T06:02:12;94082.28;;;2.60;100.00
6680;BME280;3376;42.664;23.346;2023-04-05T06:04:40;94081.03;;;2.73;100.00
6680;BME280;3376;42.664;23.346;2023-04-05T06:07:07;94099.31;;;2.78;100.00
6680;BME280;3376;42.664;23.346;2023-04-05T06:09:34;94100.56;;;2.74;100.00
6680;BME280;3376;42.664;23.346;2023-04-05T06:12:00;94100.09;;;2.88;100.00
6680;BME280;3376;42.664;23.346;2023-04-05T06:14:27;94098.06;;;2.92;100.00
6680;BME280;3376;42.664;23.346;2023-04-05T06:16:54;94094.91;;;3.07;100.00
6680;BME280;3376;42.664;23.346;2023-04-05T06:19:21;94102.97;;;3.12;100.00
6680;BME280;3376;42.664;23.346;2023-04-05T06:21:49;94105.13;;;3.07;100.00
6680;BME280;3376;42.664;23.346;2023-04-05T06:24:16;94108.78;;;3.05;100.00
6680;BME280;3376;42.664;23.346;2023-04-05T06:26:43;94117.53;;;3.12;100.00
6680;BME280;3376;42.664;23.346;2023-04-05T06:29:10;94102.19;;;3.02;100.00
6680;BME280;3376;42.664;23.346;2023-04-05T06:31:37;94109.41;;;3.16;100.00
6680;BME280;3376;42.664;23.346;2023-04-05T06:34:05;94119.38;;;3.19;100.00
6680;BME280;3376;42.664;23.346;2023-04-05T06:36:32;94119.03;;;3.32;100.00
6680;BME280;3376;42.664;23.346;2023-04-05T06:39:00;94122.13;;;3.35;100.00
6680;BME280;3376;42.664;23.346;2023-04-05T06:41:27;94086.44;;;3.34;100.00
6680;BME280;3376;42.664;23.346;2023-04-05T06:43:54;94091.25;;;3.37;100.00
6680;BME280;3376;42.664;23.346;2023-04-05T06:46:21;94107.03;;;3.59;100.00
6680;BME280;3376;42.664;23.346;2023-04-05T06:48:48;94122.94;;;3.81;100.00
6680;BME280;3376;42.664;23.346;2023-04-05T06:51:15;94131.50;;;3.89;100.00
6680;BME280;3376;42.664;23.346;2023-04-05T06:53:42;94134.72;;;3.74;97.79
6680;BME280;3376;42.664;23.346;2023-04-05T06:56:10;94129.88;;;3.71;97.38
6680;BME280;3376;42.664;23.346;2023-04-05T06:58:37;94123.06;;;3.62;97.65
6680;BME280;3376;42.664;23.346;2023-04-05T07:01:04;94110.16;;;3.36;97.06
6680;BME280;3376;42.664;23.346;2023-04-05T07:03:31;94146.97;;;3.52;100.00
6680;BME280;3376;42.664;23.346;2023-04-05T07:05:59;94136.00;;;3.60;99.65
6680;BME280;3376;42.664;23.346;2023-04-05T07:08:26;94140.19;;;3.61;98.22
6680;BME280;3376;42.664;23.346;2023-04-05T07:10:53;94155.22;;;3.74;99.24
6680;BME280;3376;42.664;23.346;2023-04-05T07:13:22;94157.13;;;3.72;99.10
6680;BME280;3376;42.664;23.346;2023-04-05T07:15:49;94150.38;;;3.71;98.69
6680;BME280;3376;42.664;23.346;2023-04-05T07:18:16;94145.59;;;3.58;99.61
6680;BME280;3376;42.664;23.346;2023-04-05T07:20:46;94131.91;;;3.49;99.63
6680;BME280;3376;42.664;23.346;2023-04-05T07:23:13;94167.63;;;3.69;99.95
6680;BME280;3376;42.664;23.346;2023-04-05T07:25:40;94137.19;;;3.66;99.48
6680;BME280;3376;42.664;23.346;2023-04-05T07:28:07;94162.00;;;3.65;98.24
6680;BME280;3376;42.664;23.346;2023-04-05T07:30:35;94172.38;;;3.63;98.16
6680;BME280;3376;42.664;23.346;2023-04-05T07:33:02;94166.91;;;3.76;98.60
6680;BME280;3376;42.664;23.346;2023-04-05T07:35:29;94174.56;;;3.86;99.05
6680;BME280;3376;42.664;23.346;2023-04-05T07:37:56;94142.53;;;3.72;99.89
6680;BME280;3376;42.664;23.346;2023-04-05T07:40:22;94165.59;;;3.72;98.41
6680;BME280;3376;42.664;23.346;2023-04-05T07:42:49;94164.69;;;3.63;98.84
6680;BME280;3376;42.664;23.346;2023-04-05T07:45:16;94169.25;;;3.70;99.07
6680;BME280;3376;42.664;23.346;2023-04-05T07:47:44;94184.91;;;3.67;98.88
6680;BME280;3376;42.664;23.346;2023-04-05T07:50:11;94176.72;;;3.81;100.00
6680;BME280;3376;42.664;23.346;2023-04-05T07:52:39;94191.63;;;3.95;100.00
6680;BME280;3376;42.664;23.346;2023-04-05T07:55:07;94189.34;;;3.92;96.85
6680;BME280;3376;42.664;23.346;2023-04-05T07:57:34;94195.06;;;3.86;97.25
6680;BME280;3376;42.664;23.346;2023-04-05T08:00:01;94192.88;;;3.91;98.42
6680;BME280;3376;42.664;23.346;2023-04-05T08:02:28;94197.63;;;4.03;96.95
6680;BME280;3376;42.664;23.346;2023-04-05T08:04:56;94198.38;;;4.13;96.99
6680;BME280;3376;42.664;23.346;2023-04-05T08:07:24;94191.84;;;3.84;96.30
6680;BME280;3376;42.664;23.346;2023-04-05T08:09:51;94208.59;;;3.69;94.85
6680;BME280;3376;42.664;23.346;2023-04-05T08:12:18;94185.09;;;3.55;95.32
6680;BME280;3376;42.664;23.346;2023-04-05T08:14:44;94186.59;;;3.48;94.98
6680;BME280;3376;42.664;23.346;2023-04-05T08:17:11;94168.53;;;3.50;96.41
6680;BME280;3376;42.664;23.346;2023-04-05T08:19:39;94196.75;;;3.68;96.55
6680;BME280;3376;42.664;23.346;2023-04-05T08:22:07;94206.63;;;3.63;93.69
6680;BME280;3376;42.664;23.346;2023-04-05T08:24:34;94210.13;;;3.62;93.61
6680;BME280;3376;42.664;23.346;2023-04-05T08:27:00;94111.38;;;2.95;94.69
6680;BME280;3376;42.664;23.346;2023-04-05T08:29:27;94226.13;;;3.73;95.55
6680;BME280;3376;42.664;23.346;2023-04-05T08:31:55;94219.50;;;3.71;94.98
6680;BME280;3376;42.664;23.346;2023-04-05T08:34:22;94217.84;;;3.52;95.61
6680;BME280;3376;42.664;23.346;2023-04-05T08:36:49;94210.34;;;3.41;97.79
6680;BME280;3376;42.664;23.346;2023-04-05T08:39:17;94220.44;;;3.42;97.98
6680;BME280;3376;42.664;23.346;2023-04-05T08:41:55;94130.91;;;2.87;97.16
6680;BME280;3376;42.664;23.346;2023-04-05T08:44:29;94218.72;;;3.33;98.98
6680;BME280;3376;42.664;23.346;2023-04-05T08:46:57;94228.00;;;3.44;100.00
6680;BME280;3376;42.664;23.346;2023-04-05T08:49:25;94227.78;;;3.65;99.53
6680;BME280;3376;42.664;23.346;2023-04-05T08:51:52;94224.63;;;3.71;98.45
6680;BME280;3376;42.664;23.346;2023-04-05T08:54:21;94227.09;;;3.63;97.57
6680;BME280;3376;42.664;23.346;2023-04-05T08:56:49;94209.47;;;3.59;100.00
6680;BME280;3376;42.664;23.346;2023-04-05T08:59:18;94230.72;;;3.70;100.00
6680;BME280;3376;42.664;23.346;2023-04-05T09:01:47;94243.09;;;3.74;99.69
6680;BME280;3376;42.664;23.346;2023-04-05T09:04:18;94205.47;;;3.47;100.00
6680;BME280;3376;42.664;23.346;2023-04-05T09:06:46;94122.91;;;3.09;100.00
6680;BME280;3376;42.664;23.346;2023-04-05T09:09:15;94239.16;;;3.80;100.00
6680;BME280;3376;42.664;23.346;2023-04-05T09:11:43;94228.47;;;3.84;100.00
6680;BME280;3376;42.664;23.346;2023-04-05T09:14:10;94246.78;;;3.89;97.99
6680;BME280;3376;42.664;23.346;2023-04-05T09:16:38;94253.09;;;3.95;98.15
6680;BME280;3376;42.664;23.346;2023-04-05T09:19:06;94221.16;;;3.89;98.70
6680;BME280;3376;42.664;23.346;2023-04-05T09:21:57;94244.13;;;3.91;96.49
6680;BME280;3376;42.664;23.346;2023-04-05T09:24:33;94240.28;;;3.68;97.22
6680;BME280;3376;42.664;23.346;2023-04-05T09:27:07;94249.50;;;3.88;99.16
6680;BME280;3376;42.664;23.346;2023-04-05T09:29:34;94242.09;;;3.85;98.79
6680;BME280;3376;42.664;23.346;2023-04-05T09:32:02;94218.19;;;3.94;97.19
6680;BME280;3376;42.664;23.346;2023-04-05T09:34:30;94221.63;;;3.85;97.39
6680;BME280;3376;42.664;23.346;2023-04-05T09:36:58;94242.16;;;4.02;96.82
6680;BME280;3376;42.664;23.346;2023-04-05T09:39:29;94221.44;;;3.96;97.79
6680;BME280;3376;42.664;23.346;2023-04-05T09:42:08;94233.84;;;4.35;94.67
6680;BME280;3376;42.664;23.346;2023-04-05T09:44:52;94222.72;;;4.62;94.21
6680;BME280;3376;42.664;23.346;2023-04-05T09:47:20;94233.41;;;4.75;91.71
6680;BME280;3376;42.664;23.346;2023-04-05T09:49:46;94236.88;;;4.66;91.91
6680;BME280;3376;42.664;23.346;2023-04-05T09:52:21;94223.47;;;4.72;91.30
6680;BME280;3376;42.664;23.346;2023-04-05T09:54:48;94224.28;;;4.55;93.43
6680;BME280;3376;42.664;23.346;2023-04-05T09:57:18;94197.22;;;4.43;92.25
6680;BME280;3376;42.664;23.346;2023-04-05T09:59:45;94228.16;;;4.59;93.25
6680;BME280;3376;42.664;23.346;2023-04-05T10:02:12;94225.88;;;4.56;91.10
6680;BME280;3376;42.664;23.346;2023-04-05T10:04:39;94231.59;;;4.50;89.72
6680;BME280;3376;42.664;23.346;2023-04-05T10:07:08;94229.22;;;4.39;90.46
6680;BME280;3376;42.664;23.346;2023-04-05T10:09:35;94242.06;;;4.39;90.94
6680;BME280;3376;42.664;23.346;2023-04-05T10:12:02;94219.50;;;4.42;91.74
6680;BME280;3376;42.664;23.346;2023-04-05T10:14:31;94242.88;;;4.57;88.96
6680;BME280;3376;42.664;23.346;2023-04-05T10:17:06;94245.50;;;4.47;88.25
6680;BME280;3376;42.664;23.346;2023-04-05T10:19:50;94239.03;;;4.26;87.83
6680;BME280;3376;42.664;23.346;2023-04-05T10:22:22;94233.84;;;4.18;88.00
6680;BME280;3376;42.664;23.346;2023-04-05T10:24:53;94259.47;;;4.18;86.94
6680;BME280;3376;42.664;23.346;2023-04-05T10:27:24;94247.50;;;4.09;88.81
6680;BME280;3376;42.664;23.346;2023-04-05T10:30:02;94220.94;;;3.83;88.91
6680;BME280;3376;42.664;23.346;2023-04-05T10:32:37;94239.81;;;4.09;89.26
6680;BME280;3376;42.664;23.346;2023-04-05T10:35:09;94223.31;;;3.94;86.84
6680;BME280;3376;42.664;23.346;2023-04-05T10:37:53;94237.44;;;3.98;88.76
6680;BME280;3376;42.664;23.346;2023-04-05T10:40:28;94213.47;;;3.72;87.28
6680;BME280;3376;42.664;23.346;2023-04-05T10:42:57;94247.81;;;4.06;88.93
6680;BME280;3376;42.664;23.346;2023-04-05T10:45:26;94248.84;;;4.13;88.67
6680;BME280;3376;42.664;23.346;2023-04-05T10:47:57;94250.53;;;4.22;88.48
6680;BME280;3376;42.664;23.346;2023-04-05T10:50:26;94249.91;;;4.37;87.42
6680;BME280;3376;42.664;23.346;2023-04-05T10:52:54;94258.69;;;4.35;86.60
6680;BME280;3376;42.664;23.346;2023-04-05T10:55:21;94250.72;;;4.38;86.50
6680;BME280;3376;42.664;23.346;2023-04-05T10:57:49;94261.19;;;4.44;86.50
6680;BME280;3376;42.664;23.346;2023-04-05T11:00:16;94251.44;;;4.48;87.91
6680;BME280;3376;42.664;23.346;2023-04-05T11:02:47;94248.47;;;4.52;88.90
6680;BME280;3376;42.664;23.346;2023-04-05T11:05:31;94245.72;;;4.71;87.21
6680;BME280;3376;42.664;23.346;2023-04-05T11:08:04;94256.50;;;4.75;87.14
6680;BME280;3376;42.664;23.346;2023-04-05T11:10:34;94247.72;;;4.60;86.19
6680;BME280;3376;42.664;23.346;2023-04-05T11:13:03;94269.28;;;4.67;85.51
6680;BME280;3376;42.664;23.346;2023-04-05T11:15:32;94257.72;;;4.36;85.58
6680;BME280;3376;42.664;23.346;2023-04-05T11:18:05;94265.94;;;4.39;85.94
6680;BME280;3376;42.664;23.346;2023-04-05T11:20:40;94265.13;;;4.39;86.54
6680;BME280;3376;42.664;23.346;2023-04-05T11:23:08;94268.47;;;4.49;87.25
6680;BME280;3376;42.664;23.346;2023-04-05T11:25:37;94259.69;;;4.69;86.18
6680;BME280;3376;42.664;23.346;2023-04-05T11:28:04;94262.91;;;4.71;87.85
6680;BME280;3376;42.664;23.346;2023-04-05T11:30:47;94260.69;;;4.76;85.73
6680;BME280;3376;42.664;23.346;2023-04-05T11:33:36;94271.53;;;4.88;83.79
6680;BME280;3376;42.664;23.346;2023-04-05T11:36:03;94272.94;;;4.82;84.20
6680;BME280;3376;42.664;23.346;2023-04-05T11:38:30;94264.72;;;4.78;86.67
6680;BME280;3376;42.664;23.346;2023-04-05T11:41:11;94257.91;;;4.52;84.09
6680;BME280;3376;42.664;23.346;2023-04-05T11:43:42;94247.66;;;4.69;86.18
6680;BME280;3376;42.664;23.346;2023-04-05T11:46:09;94268.81;;;4.89;84.43
6680;BME280;3376;42.664;23.346;2023-04-05T11:48:39;94261.06;;;4.81;83.66
6680;BME280;3376;42.664;23.346;2023-04-05T11:51:07;94253.44;;;4.89;84.76
6680;BME280;3376;42.664;23.346;2023-04-05T11:53:35;94254.75;;;4.93;84.54
6680;BME280;3376;42.664;23.346;2023-04-05T11:56:06;94265.88;;;5.02;83.75
6680;BME280;3376;42.664;23.346;2023-04-05T11:58:34;94258.03;;;4.86;82.65
6680;BME280;3376;42.664;23.346;2023-04-05T12:01:01;94250.56;;;4.92;84.05
6680;BME280;3376;42.664;23.346;2023-04-05T12:03:30;94263.47;;;5.00;85.67
6680;BME280;3376;42.664;23.346;2023-04-05T12:05:59;94263.59;;;5.16;85.36
6680;BME280;3376;42.664;23.346;2023-04-05T12:08:38;94267.59;;;5.36;84.19
6680;BME280;3376;42.664;23.346;2023-04-05T12:11:07;94118.97;;;4.56;83.46
6680;BME280;3376;42.664;23.346;2023-04-05T12:13:35;94256.06;;;5.40;82.80
6680;BME280;3376;42.664;23.346;2023-04-05T12:16:03;94272.50;;;5.30;82.86
6680;BME280;3376;42.664;23.346;2023-04-05T12:18:32;94262.53;;;5.27;83.38
6680;BME280;3376;42.664;23.346;2023-04-05T12:21:01;94259.47;;;5.23;83.40
6680;BME280;3376;42.664;23.346;2023-04-05T12:23:28;94266.09;;;5.08;85.36
6680;BME280;3376;42.664;23.346;2023-04-05T12:25:57;94254.47;;;5.22;86.59
6680;BME280;3376;42.664;23.346;2023-04-05T12:28:24;94244.13;;;5.31;85.69
6680;BME280;3376;42.664;23.346;2023-04-05T12:30:52;94257.19;;;5.71;85.21
6680;BME280;3376;42.664;23.346;2023-04-05T12:33:25;94250.97;;;5.74;83.63
6680;BME280;3376;42.664;23.346;2023-04-05T12:35:53;94257.09;;;5.81;82.43
6680;BME280;3376;42.664;23.346;2023-04-05T12:38:24;94244.03;;;5.74;82.85
6680;BME280;3376;42.664;23.346;2023-04-05T12:40:51;94247.78;;;5.54;84.46
6680;BME280;3376;42.664;23.346;2023-04-05T12:43:18;94265.03;;;5.62;83.88
6680;BME280;3376;42.664;23.346;2023-04-05T12:45:45;94251.69;;;5.58;84.69
6680;BME280;3376;42.664;23.346;2023-04-05T12:48:19;94261.75;;;5.52;83.69
6680;BME280;3376;42.664;23.346;2023-04-05T12:50:48;94269.72;;;5.41;84.13
6680;BME280;3376;42.664;23.346;2023-04-05T12:53:17;94262.69;;;5.25;84.42
6680;BME280;3376;42.664;23.346;2023-04-05T12:55:49;94265.94;;;5.10;84.26
6680;BME280;3376;42.664;23.346;2023-04-05T12:58:17;94269.19;;;4.94;85.86
6680;BME280;3376;42.664;23.346;2023-04-05T13:00:44;94245.00;;;4.79;86.54
6680;BME280;3376;42.664;23.346;2023-04-05T13:03:15;94266.72;;;4.85;86.55
6680;BME280;3376;42.664;23.346;2023-04-05T13:05:42;94269.84;;;4.78;87.44
6680;BME280;3376;42.664;23.346;2023-04-05T13:08:09;94275.94;;;4.77;87.63
6680;BME280;3376;42.664;23.346;2023-04-05T13:10:35;94262.44;;;4.75;86.16
6680;BME280;3376;42.664;23.346;2023-04-05T13:13:04;94260.03;;;4.74;85.20
6680;BME280;3376;42.664;23.346;2023-04-05T13:15:30;94274.19;;;4.78;86.06
6680;BME280;3376;42.664;23.346;2023-04-05T13:17:57;94248.50;;;4.43;85.14
6680;BME280;3376;42.664;23.346;2023-04-05T13:20:24;94277.81;;;4.58;85.05
6680;BME280;3376;42.664;23.346;2023-04-05T13:22:51;94267.16;;;4.62;85.03